sensor_id;sensor_type;location;lat;lon;timestamp;P1;durP1;ratioP1;P2;durP2;ratioP2
11305;SDS011;5708;50.660;6.778;2023-08-24T00:00:50;6.93;;;2.83;;
11305;SDS011;5708;50.660;6.778;2023-08-24T00:03:16;5.75;;;2.70;;
11305;SDS011;5708;50.660;6.778;2023-08-24T00:05:41;5.53;;;2.55;;
11305;SDS011;5708;50.660;6.778;2023-08-24T00:08:07;5.65;;;3.15;;
11305;SDS011;5708;50.660;6.778;2023-08-24T00:10:33;5.50;;;2.88;;
11305;SDS011;5708;50.660;6.778;2023-08-24T00:12:59;8.65;;;3.00;;
11305;SDS011;5708;50.660;6.778;2023-08-24T00:15:24;6.32;;;2.60;;
11305;SDS011;5708;50.660;6.778;2023-08-24T00:17:50;5.45;;;2.70;;
11305;SDS011;5708;50.660;6.778;2023-08-24T00:20:15;6.43;;;2.80;;
11305;SDS011;5708;50.660;6.778;2023-08-24T00:22:40;5.43;;;2.80;;
11305;SDS011;5708;50.660;6.778;2023-08-24T00:25:06;7.03;;;3.03;;
11305;SDS011;5708;50.660;6.778;2023-08-24T00:27:32;6.25;;;2.55;;
11305;SDS011;5708;50.660;6.778;2023-08-24T00:29:58;9.40;;;3.00;;
11305;SDS011;5708;50.660;6.778;2023-08-24T00:32:23;7.68;;;3.17;;
11305;SDS011;5708;50.660;6.778;2023-08-24T00:34:48;6.68;;;3.15;;
11305;SDS011;5708;50.660;6.778;2023-08-24T00:37:14;7.68;;;2.90;;
11305;SDS011;5708;50.660;6.778;2023-08-24T00:39:39;8.05;;;2.80;;
11305;SDS011;5708;50.660;6.778;2023-08-24T00:42:05;5.22;;;2.80;;
11305;SDS011;5708;50.660;6.778;2023-08-24T00:44:31;6.30;;;2.80;;
11305;SDS011;5708;50.660;6.778;2023-08-24T00:46:56;5.63;;;2.75;;
11305;SDS011;5708;50.660;6.778;2023-08-24T00:49:23;4.82;;;2.90;;
11305;SDS011;5708;50.660;6.778;2023-08-24T00:51:48;6.53;;;2.83;;
11305;SDS011;5708;50.660;6.778;2023-08-24T00:54:13;6.60;;;2.92;;
11305;SDS011;5708;50.660;6.778;2023-08-24T00:56:39;6.25;;;2.97;;
11305;SDS011;5708;50.660;6.778;2023-08-24T00:59:05;6.35;;;3.28;;
11305;SDS011;5708;50.660;6.778;2023-08-24T01:01:30;6.57;;;3.00;;
11305;SDS011;5708;50.660;6.778;2023-08-24T01:03:56;6.25;;;2.85;;
11305;SDS011;5708;50.660;6.778;2023-08-24T01:06:21;10.10;;;3.40;;
11305;SDS011;5708;50.660;6.778;2023-08-24T01:08:46;6.55;;;3.00;;
11305;SDS011;5708;50.660;6.778;2023-08-24T01:11:16;8.23;;;3.08;;
11305;SDS011;5708;50.660;6.778;2023-08-24T01:13:55;5.97;;;3.00;;
11305;SDS011;5708;50.660;6.778;2023-08-24T01:16:45;5.65;;;2.80;;
11305;SDS011;5708;50.660;6.778;2023-08-24T01:19:16;7.40;;;2.88;;
11305;SDS011;5708;50.660;6.778;2023-08-24T01:21:50;7.50;;;3.10;;
11305;SDS011;5708;50.660;6.778;2023-08-24T01:24:27;7.18;;;3.22;;
11305;SDS011;5708;50.660;6.778;2023-08-24T01:26:56;7.35;;;3.15;;
11305;SDS011;5708;50.660;6.778;2023-08-24T01:29:23;6.95;;;3.05;;
11305;SDS011;5708;50.660;6.778;2023-08-24T01:31:48;6.10;;;3.00;;
11305;SDS011;5708;50.660;6.778;2023-08-24T01:34:14;7.80;;;2.90;;
11305;SDS011;5708;50.660;6.778;2023-08-24T01:36:40;8.18;;;3.08;;
11305;SDS011;5708;50.660;6.778;2023-08-24T01:39:07;6.13;;;3.00;;
11305;SDS011;5708;50.660;6.778;2023-08-24T01:41:37;5.50;;;2.97;;
11305;SDS011;5708;50.660;6.778;2023-08-24T01:44:04;7.85;;;3.10;;
11305;SDS011;5708;50.660;6.778;2023-08-24T01:46:31;5.38;;;2.70;;
11305;SDS011;5708;50.660;6.778;2023-08-24T01:48:58;5.95;;;2.80;;
11305;SDS011;5708;50.660;6.778;2023-08-24T01:51:24;6.13;;;3.20;;
11305;SDS011;5708;50.660;6.778;2023-08-24T01:53:49;7.13;;;3.05;;
11305;SDS011;5708;50.660;6.778;2023-08-24T01:56:15;6.25;;;2.80;;
11305;SDS011;5708;50.660;6.778;2023-08-24T01:58:41;8.15;;;3.20;;
11305;SDS011;5708;50.660;6.778;2023-08-24T02:01:07;7.93;;;2.90;;
11305;SDS011;5708;50.660;6.778;2023-08-24T02:03:33;7.22;;;2.95;;
11305;SDS011;5708;50.660;6.778;2023-08-24T02:05:59;6.68;;;3.08;;
11305;SDS011;5708;50.660;6.778;2023-08-24T02:08:24;12.20;;;3.60;;
11305;SDS011;5708;50.660;6.778;2023-08-24T02:10:50;6.50;;;2.65;;
11305;SDS011;5708;50.660;6.778;2023-08-24T02:13:15;7.13;;;2.90;;
11305;SDS011;5708;50.660;6.778;2023-08-24T02:15:40;5.28;;;2.50;;
11305;SDS011;5708;50.660;6.778;2023-08-24T02:18:06;7.35;;;2.85;;
11305;SDS011;5708;50.660;6.778;2023-08-24T02:20:38;8.73;;;2.63;;
11305;SDS011;5708;50.660;6.778;2023-08-24T02:23:04;6.43;;;2.80;;
11305;SDS011;5708;50.660;6.778;2023-08-24T02:25:29;8.75;;;2.70;;
11305;SDS011;5708;50.660;6.778;2023-08-24T02:27:55;6.43;;;2.70;;
11305;SDS011;5708;50.660;6.778;2023-08-24T02:30:20;6.93;;;2.53;;
11305;SDS011;5708;50.660;6.778;2023-08-24T02:32:45;6.30;;;2.50;;
11305;SDS011;5708;50.660;6.778;2023-08-24T02:35:11;8.30;;;2.83;;
11305;SDS011;5708;50.660;6.778;2023-08-24T02:37:36;7.03;;;2.60;;
11305;SDS011;5708;50.660;6.778;2023-08-24T02:40:01;5.53;;;2.38;;
11305;SDS011;5708;50.660;6.778;2023-08-24T02:42:30;8.00;;;2.78;;
11305;SDS011;5708;50.660;6.778;2023-08-24T02:44:56;6.63;;;2.80;;
11305;SDS011;5708;50.660;6.778;2023-08-24T02:47:21;4.57;;;2.25;;
11305;SDS011;5708;50.660;6.778;2023-08-24T02:49:47;7.05;;;2.90;;
11305;SDS011;5708;50.660;6.778;2023-08-24T02:52:12;5.72;;;3.08;;
11305;SDS011;5708;50.660;6.778;2023-08-24T02:54:37;5.40;;;2.47;;
11305;SDS011;5708;50.660;6.778;2023-08-24T02:57:02;5.80;;;2.55;;
11305;SDS011;5708;50.660;6.778;2023-08-24T02:59:28;4.63;;;2.47;;
11305;SDS011;5708;50.660;6.778;2023-08-24T03:01:54;5.93;;;2.47;;
11305;SDS011;5708;50.660;6.778;2023-08-24T03:04:19;5.22;;;2.55;;
11305;SDS011;5708;50.660;6.778;2023-08-24T03:06:44;3.28;;;2.20;;
11305;SDS011;5708;50.660;6.778;2023-08-24T03:09:09;5.88;;;2.90;;
11305;SDS011;5708;50.660;6.778;2023-08-24T03:11:35;5.55;;;2.40;;
11305;SDS011;5708;50.660;6.778;2023-08-24T03:14:00;6.55;;;2.35;;
11305;SDS011;5708;50.660;6.778;2023-08-24T03:16:26;7.28;;;3.08;;
11305;SDS011;5708;50.660;6.778;2023-08-24T03:18:51;5.32;;;2.63;;
11305;SDS011;5708;50.660;6.778;2023-08-24T03:21:16;7.13;;;3.05;;
11305;SDS011;5708;50.660;6.778;2023-08-24T03:23:42;8.50;;;2.72;;
11305;SDS011;5708;50.660;6.778;2023-08-24T03:26:07;7.38;;;3.13;;
11305;SDS011;5708;50.660;6.778;2023-08-24T03:28:32;8.13;;;3.00;;
11305;SDS011;5708;50.660;6.778;2023-08-24T03:30:58;7.00;;;3.20;;
11305;SDS011;5708;50.660;6.778;2023-08-24T03:33:23;7.15;;;3.38;;
11305;SDS011;5708;50.660;6.778;2023-08-24T03:35:48;7.88;;;3.22;;
11305;SDS011;5708;50.660;6.778;2023-08-24T03:38:14;9.15;;;2.97;;
11305;SDS011;5708;50.660;6.778;2023-08-24T03:40:40;9.45;;;3.00;;
11305;SDS011;5708;50.660;6.778;2023-08-24T03:43:05;7.00;;;3.10;;
11305;SDS011;5708;50.660;6.778;2023-08-24T03:45:30;10.00;;;3.17;;
11305;SDS011;5708;50.660;6.778;2023-08-24T03:47:56;6.30;;;2.80;;
11305;SDS011;5708;50.660;6.778;2023-08-24T03:50:21;6.18;;;3.17;;
11305;SDS011;5708;50.660;6.778;2023-08-24T03:52:50;6.65;;;2.47;;
11305;SDS011;5708;50.660;6.778;2023-08-24T03:55:15;4.45;;;2.42;;
11305;SDS011;5708;50.660;6.778;2023-08-24T03:57:41;11.98;;;3.30;;
11305;SDS011;5708;50.660;6.778;2023-08-24T04:00:07;9.18;;;2.85;;
11305;SDS011;5708;50.660;6.778;2023-08-24T04:02:36;9.02;;;3.03;;
11305;SDS011;5708;50.660;6.778;2023-08-24T04:05:04;6.47;;;3.00;;
11305;SDS011;5708;50.660;6.778;2023-08-24T04:07:29;7.18;;;2.72;;
11305;SDS011;5708;50.660;6.778;2023-08-24T04:09:54;7.30;;;2.88;;
11305;SDS011;5708;50.660;6.778;2023-08-24T04:12:20;6.38;;;2.80;;
11305;SDS011;5708;50.660;6.778;2023-08-24T04:14:45;6.95;;;2.90;;
11305;SDS011;5708;50.660;6.778;2023-08-24T04:17:10;6.30;;;3.13;;
11305;SDS011;5708;50.660;6.778;2023-08-24T04:19:37;6.57;;;2.88;;
11305;SDS011;5708;50.660;6.778;2023-08-24T04:22:03;6.47;;;2.95;;
11305;SDS011;5708;50.660;6.778;2023-08-24T04:24:28;8.70;;;3.20;;
11305;SDS011;5708;50.660;6.778;2023-08-24T04:26:53;10.80;;;3.58;;
11305;SDS011;5708;50.660;6.778;2023-08-24T04:29:19;9.05;;;3.20;;
11305;SDS011;5708;50.660;6.778;2023-08-24T04:31:44;7.57;;;3.25;;
11305;SDS011;5708;50.660;6.778;2023-08-24T04:34:09;7.25;;;3.40;;
11305;SDS011;5708;50.660;6.778;2023-08-24T04:36:36;6.55;;;3.67;;
11305;SDS011;5708;50.660;6.778;2023-08-24T04:39:01;7.90;;;3.40;;
11305;SDS011;5708;50.660;6.778;2023-08-24T04:41:27;6.03;;;3.33;;
11305;SDS011;5708;50.660;6.778;2023-08-24T04:43:52;8.15;;;3.65;;
11305;SDS011;5708;50.660;6.778;2023-08-24T04:46:17;9.40;;;3.53;;
11305;SDS011;5708;50.660;6.778;2023-08-24T04:48:43;10.40;;;3.95;;
11305;SDS011;5708;50.660;6.778;2023-08-24T04:51:08;6.22;;;3.50;;
11305;SDS011;5708;50.660;6.778;2023-08-24T04:53:33;8.27;;;3.92;;
11305;SDS011;5708;50.660;6.778;2023-08-24T04:55:59;11.13;;;4.30;;
11305;SDS011;5708;50.660;6.778;2023-08-24T04:58:24;9.80;;;4.00;;
11305;SDS011;5708;50.660;6.778;2023-08-24T05:00:50;10.70;;;3.70;;
11305;SDS011;5708;50.660;6.778;2023-08-24T05:03:15;9.25;;;3.95;;
11305;SDS011;5708;50.660;6.778;2023-08-24T05:05:41;9.82;;;4.07;;
11305;SDS011;5708;50.660;6.778;2023-08-24T05:08:06;11.50;;;3.97;;
11305;SDS011;5708;50.660;6.778;2023-08-24T05:10:34;9.32;;;3.80;;
11305;SDS011;5708;50.660;6.778;2023-08-24T05:13:00;11.18;;;4.43;;
11305;SDS011;5708;50.660;6.778;2023-08-24T05:15:25;8.68;;;4.28;;
11305;SDS011;5708;50.660;6.778;2023-08-24T05:17:51;9.35;;;4.20;;
11305;SDS011;5708;50.660;6.778;2023-08-24T05:20:21;8.18;;;3.95;;
11305;SDS011;5708;50.660;6.778;2023-08-24T05:22:49;8.65;;;4.32;;
11305;SDS011;5708;50.660;6.778;2023-08-24T05:25:14;11.23;;;4.45;;
11305;SDS011;5708;50.660;6.778;2023-08-24T05:27:41;9.25;;;4.63;;
11305;SDS011;5708;50.660;6.778;2023-08-24T05:30:07;9.82;;;4.63;;
11305;SDS011;5708;50.660;6.778;2023-08-24T05:32:32;9.60;;;4.50;;
11305;SDS011;5708;50.660;6.778;2023-08-24T05:34:59;12.93;;;5.32;;
11305;SDS011;5708;50.660;6.778;2023-08-24T05:37:24;9.27;;;4.82;;
11305;SDS011;5708;50.660;6.778;2023-08-24T05:39:49;14.93;;;5.20;;
11305;SDS011;5708;50.660;6.778;2023-08-24T05:42:15;9.93;;;5.07;;
11305;SDS011;5708;50.660;6.778;2023-08-24T05:44:40;6.47;;;4.13;;
11305;SDS011;5708;50.660;6.778;2023-08-24T05:47:05;12.13;;;4.28;;
11305;SDS011;5708;50.660;6.778;2023-08-24T05:49:31;8.25;;;4.78;;
11305;SDS011;5708;50.660;6.778;2023-08-24T05:51:56;12.30;;;4.55;;
11305;SDS011;5708;50.660;6.778;2023-08-24T05:54:21;8.82;;;4.50;;
11305;SDS011;5708;50.660;6.778;2023-08-24T05:56:47;9.02;;;4.60;;
11305;SDS011;5708;50.660;6.778;2023-08-24T05:59:13;8.55;;;4.60;;
11305;SDS011;5708;50.660;6.778;2023-08-24T06:01:39;7.43;;;4.07;;
11305;SDS011;5708;50.660;6.778;2023-08-24T06:04:05;9.27;;;3.85;;
11305;SDS011;5708;50.660;6.778;2023-08-24T06:06:30;8.60;;;4.28;;
11305;SDS011;5708;50.660;6.778;2023-08-24T06:08:56;11.20;;;4.32;;
11305;SDS011;5708;50.660;6.778;2023-08-24T06:11:21;8.85;;;4.18;;
11305;SDS011;5708;50.660;6.778;2023-08-24T06:13:47;7.90;;;4.43;;
11305;SDS011;5708;50.660;6.778;2023-08-24T06:16:13;9.45;;;4.90;;
11305;SDS011;5708;50.660;6.778;2023-08-24T06:18:38;7.65;;;4.60;;
11305;SDS011;5708;50.660;6.778;2023-08-24T06:21:03;9.82;;;4.90;;
11305;SDS011;5708;50.660;6.778;2023-08-24T06:23:29;9.30;;;4.75;;
11305;SDS011;5708;50.660;6.778;2023-08-24T06:25:54;10.50;;;4.60;;
11305;SDS011;5708;50.660;6.778;2023-08-24T06:28:19;10.20;;;4.72;;
11305;SDS011;5708;50.660;6.778;2023-08-24T06:30:45;9.65;;;4.20;;
11305;SDS011;5708;50.660;6.778;2023-08-24T06:33:12;8.15;;;4.63;;
11305;SDS011;5708;50.660;6.778;2023-08-24T06:35:37;7.53;;;4.00;;
11305;SDS011;5708;50.660;6.778;2023-08-24T06:38:03;9.73;;;4.38;;
11305;SDS011;5708;50.660;6.778;2023-08-24T06:40:29;10.02;;;4.00;;
11305;SDS011;5708;50.660;6.778;2023-08-24T06:42:54;8.15;;;4.10;;
11305;SDS011;5708;50.660;6.778;2023-08-24T06:45:20;8.07;;;3.60;;
11305;SDS011;5708;50.660;6.778;2023-08-24T06:47:45;11.15;;;4.03;;
11305;SDS011;5708;50.660;6.778;2023-08-24T06:50:10;12.10;;;4.35;;
11305;SDS011;5708;50.660;6.778;2023-08-24T06:52:36;9.32;;;3.80;;
11305;SDS011;5708;50.660;6.778;2023-08-24T06:55:01;13.60;;;3.92;;
11305;SDS011;5708;50.660;6.778;2023-08-24T06:57:27;8.23;;;3.50;;
11305;SDS011;5708;50.660;6.778;2023-08-24T06:59:53;7.43;;;4.00;;
11305;SDS011;5708;50.660;6.778;2023-08-24T07:02:18;9.13;;;3.70;;
11305;SDS011;5708;50.660;6.778;2023-08-24T07:04:43;13.77;;;4.57;;
11305;SDS011;5708;50.660;6.778;2023-08-24T07:07:09;9.57;;;3.90;;
11305;SDS011;5708;50.660;6.778;2023-08-24T07:09:34;9.05;;;4.00;;
11305;SDS011;5708;50.660;6.778;2023-08-24T07:12:00;10.27;;;3.92;;
11305;SDS011;5708;50.660;6.778;2023-08-24T07:14:26;7.93;;;3.65;;
11305;SDS011;5708;50.660;6.778;2023-08-24T07:16:52;7.10;;;3.95;;
11305;SDS011;5708;50.660;6.778;2023-08-24T07:19:17;8.15;;;3.60;;
11305;SDS011;5708;50.660;6.778;2023-08-24T07:21:42;8.13;;;3.45;;
11305;SDS011;5708;50.660;6.778;2023-08-24T07:24:08;6.82;;;3.22;;
11305;SDS011;5708;50.660;6.778;2023-08-24T07:26:33;8.25;;;3.20;;
11305;SDS011;5708;50.660;6.778;2023-08-24T07:28:59;8.05;;;3.40;;
11305;SDS011;5708;50.660;6.778;2023-08-24T07:31:24;6.10;;;2.90;;
11305;SDS011;5708;50.660;6.778;2023-08-24T07:33:50;9.38;;;3.30;;
11305;SDS011;5708;50.660;6.778;2023-08-24T07:36:15;7.47;;;2.75;;
11305;SDS011;5708;50.660;6.778;2023-08-24T07:38:41;6.35;;;2.72;;
11305;SDS011;5708;50.660;6.778;2023-08-24T07:41:09;6.55;;;3.22;;
11305;SDS011;5708;50.660;6.778;2023-08-24T07:43:36;6.18;;;3.15;;
11305;SDS011;5708;50.660;6.778;2023-08-24T07:46:01;9.13;;;2.90;;
11305;SDS011;5708;50.660;6.778;2023-08-24T07:48:27;5.95;;;3.05;;
11305;SDS011;5708;50.660;6.778;2023-08-24T07:50:52;7.10;;;3.03;;
11305;SDS011;5708;50.660;6.778;2023-08-24T07:53:17;6.97;;;3.10;;
11305;SDS011;5708;50.660;6.778;2023-08-24T07:55:43;8.05;;;2.80;;
11305;SDS011;5708;50.660;6.778;2023-08-24T07:58:08;8.70;;;3.78;;
11305;SDS011;5708;50.660;6.778;2023-08-24T08:00:34;6.88;;;3.22;;
11305;SDS011;5708;50.660;6.778;2023-08-24T08:02:59;7.10;;;2.63;;
11305;SDS011;5708;50.660;6.778;2023-08-24T08:05:25;6.85;;;2.90;;
11305;SDS011;5708;50.660;6.778;2023-08-24T08:07:50;5.93;;;3.35;;
11305;SDS011;5708;50.660;6.778;2023-08-24T08:10:16;6.15;;;2.92;;
11305;SDS011;5708;50.660;6.778;2023-08-24T08:12:42;7.90;;;2.60;;
11305;SDS011;5708;50.660;6.778;2023-08-24T08:15:08;4.65;;;2.55;;
11305;SDS011;5708;50.660;6.778;2023-08-24T08:17:33;7.70;;;2.58;;
11305;SDS011;5708;50.660;6.778;2023-08-24T08:19:58;6.72;;;2.42;;
11305;SDS011;5708;50.660;6.778;2023-08-24T08:22:24;5.47;;;2.63;;
11305;SDS011;5708;50.660;6.778;2023-08-24T08:24:50;5.30;;;2.42;;
11305;SDS011;5708;50.660;6.778;2023-08-24T08:27:16;6.05;;;2.55;;
11305;SDS011;5708;50.660;6.778;2023-08-24T08:29:41;5.10;;;2.42;;
11305;SDS011;5708;50.660;6.778;2023-08-24T08:32:07;6.45;;;2.42;;
11305;SDS011;5708;50.660;6.778;2023-08-24T08:34:33;4.47;;;2.22;;
11305;SDS011;5708;50.660;6.778;2023-08-24T08:36:58;5.03;;;2.35;;
11305;SDS011;5708;50.660;6.778;2023-08-24T08:39:23;6.70;;;2.25;;
11305;SDS011;5708;50.660;6.778;2023-08-24T08:41:49;4.60;;;2.30;;
11305;SDS011;5708;50.660;6.778;2023-08-24T08:44:14;4.80;;;1.80;;
11305;SDS011;5708;50.660;6.778;2023-08-24T08:46:43;4.38;;;2.13;;
11305;SDS011;5708;50.660;6.778;2023-08-24T08:49:08;6.22;;;2.53;;
11305;SDS011;5708;50.660;6.778;2023-08-24T08:51:35;5.85;;;2.25;;
11305;SDS011;5708;50.660;6.778;2023-08-24T08:54:01;8.18;;;2.70;;
11305;SDS011;5708;50.660;6.778;2023-08-24T08:56:27;7.75;;;2.30;;
11305;SDS011;5708;50.660;6.778;2023-08-24T08:58:54;5.38;;;2.38;;
11305;SDS011;5708;50.660;6.778;2023-08-24T09:01:20;6.78;;;2.53;;
11305;SDS011;5708;50.660;6.778;2023-08-24T09:03:46;4.88;;;2.58;;
11305;SDS011;5708;50.660;6.778;2023-08-24T09:06:11;4.28;;;2.05;;
11305;SDS011;5708;50.660;6.778;2023-08-24T09:08:36;6.25;;;2.22;;
11305;SDS011;5708;50.660;6.778;2023-08-24T09:11:02;6.45;;;2.80;;
11305;SDS011;5708;50.660;6.778;2023-08-24T09:13:28;5.70;;;2.58;;
11305;SDS011;5708;50.660;6.778;2023-08-24T09:15:53;6.88;;;2.42;;
11305;SDS011;5708;50.660;6.778;2023-08-24T09:18:19;7.95;;;2.40;;
11305;SDS011;5708;50.660;6.778;2023-08-24T09:20:46;6.97;;;2.38;;
11305;SDS011;5708;50.660;6.778;2023-08-24T09:23:18;6.05;;;2.22;;
11305;SDS011;5708;50.660;6.778;2023-08-24T09:25:45;5.43;;;2.10;;
11305;SDS011;5708;50.660;6.778;2023-08-24T09:28:11;6.97;;;2.35;;
11305;SDS011;5708;50.660;6.778;2023-08-24T09:30:37;5.88;;;2.38;;
11305;SDS011;5708;50.660;6.778;2023-08-24T09:33:03;7.72;;;2.30;;
11305;SDS011;5708;50.660;6.778;2023-08-24T09:35:34;4.35;;;2.22;;
11305;SDS011;5708;50.660;6.778;2023-08-24T09:38:01;7.40;;;2.40;;
11305;SDS011;5708;50.660;6.778;2023-08-24T09:40:40;7.30;;;2.50;;
11305;SDS011;5708;50.660;6.778;2023-08-24T09:43:12;6.15;;;2.17;;
11305;SDS011;5708;50.660;6.778;2023-08-24T09:45:38;8.52;;;2.60;;
11305;SDS011;5708;50.660;6.778;2023-08-24T09:48:10;5.10;;;2.05;;
11305;SDS011;5708;50.660;6.778;2023-08-24T09:50:36;7.10;;;2.25;;
11305;SDS011;5708;50.660;6.778;2023-08-24T09:53:01;8.23;;;2.47;;
11305;SDS011;5708;50.660;6.778;2023-08-24T09:55:27;6.82;;;1.95;;
11305;SDS011;5708;50.660;6.778;2023-08-24T09:57:55;6.45;;;2.42;;
11305;SDS011;5708;50.660;6.778;2023-08-24T10:00:22;7.45;;;2.28;;
11305;SDS011;5708;50.660;6.778;2023-08-24T10:02:50;9.77;;;2.40;;
11305;SDS011;5708;50.660;6.778;2023-08-24T10:05:19;9.00;;;2.38;;
11305;SDS011;5708;50.660;6.778;2023-08-24T10:07:47;6.70;;;2.20;;
11305;SDS011;5708;50.660;6.778;2023-08-24T10:10:14;5.97;;;2.17;;
11305;SDS011;5708;50.660;6.778;2023-08-24T10:12:41;7.03;;;2.20;;
11305;SDS011;5708;50.660;6.778;2023-08-24T10:15:09;5.25;;;2.08;;
11305;SDS011;5708;50.660;6.778;2023-08-24T10:17:37;5.05;;;1.98;;
11305;SDS011;5708;50.660;6.778;2023-08-24T10:20:02;7.43;;;2.38;;
11305;SDS011;5708;50.660;6.778;2023-08-24T10:22:34;5.95;;;2.38;;
11305;SDS011;5708;50.660;6.778;2023-08-24T10:24:59;7.28;;;2.60;;
11305;SDS011;5708;50.660;6.778;2023-08-24T10:27:26;6.18;;;2.20;;
11305;SDS011;5708;50.660;6.778;2023-08-24T10:29:52;4.97;;;2.15;;
11305;SDS011;5708;50.660;6.778;2023-08-24T10:32:19;10.23;;;2.10;;
11305;SDS011;5708;50.660;6.778;2023-08-24T10:34:44;7.43;;;2.75;;
11305;SDS011;5708;50.660;6.778;2023-08-24T10:37:10;6.85;;;2.10;;
11305;SDS011;5708;50.660;6.778;2023-08-24T10:39:46;5.03;;;1.85;;
11305;SDS011;5708;50.660;6.778;2023-08-24T10:42:12;6.65;;;2.42;;
11305;SDS011;5708;50.660;6.778;2023-08-24T10:44:38;7.18;;;2.35;;
11305;SDS011;5708;50.660;6.778;2023-08-24T10:49:37;5.65;;;2.40;;
11305;SDS011;5708;50.660;6.778;2023-08-24T10:52:18;6.70;;;2.30;;
11305;SDS011;5708;50.660;6.778;2023-08-24T10:54:45;4.07;;;2.20;;
11305;SDS011;5708;50.660;6.778;2023-08-24T11:02:50;6.30;;;2.22;;
11305;SDS011;5708;50.660;6.778;2023-08-24T11:05:17;4.72;;;2.22;;
11305;SDS011;5708;50.660;6.778;2023-08-24T11:07:50;6.68;;;2.20;;
11305;SDS011;5708;50.660;6.778;2023-08-24T11:10:16;4.05;;;2.10;;
11305;SDS011;5708;50.660;6.778;2023-08-24T11:15:34;5.63;;;2.30;;
11305;SDS011;5708;50.660;6.778;2023-08-24T11:20:37;6.60;;;2.03;;
11305;SDS011;5708;50.660;6.778;2023-08-24T11:23:07;5.40;;;2.35;;
11305;SDS011;5708;50.660;6.778;2023-08-24T11:25:35;5.30;;;2.38;;
11305;SDS011;5708;50.660;6.778;2023-08-24T11:28:00;5.90;;;2.38;;
11305;SDS011;5708;50.660;6.778;2023-08-24T11:30:26;7.05;;;2.45;;
11305;SDS011;5708;50.660;6.778;2023-08-24T11:32:51;7.25;;;2.15;;
11305;SDS011;5708;50.660;6.778;2023-08-24T11:35:18;8.25;;;2.63;;
11305;SDS011;5708;50.660;6.778;2023-08-24T11:37:44;5.70;;;2.28;;
11305;SDS011;5708;50.660;6.778;2023-08-24T11:40:16;8.77;;;2.60;;
11305;SDS011;5708;50.660;6.778;2023-08-24T11:42:42;7.10;;;2.72;;
11305;SDS011;5708;50.660;6.778;2023-08-24T11:45:11;5.32;;;2.47;;
11305;SDS011;5708;50.660;6.778;2023-08-24T11:47:39;8.02;;;2.42;;
11305;SDS011;5708;50.660;6.778;2023-08-24T11:50:05;7.85;;;2.42;;
11305;SDS011;5708;50.660;6.778;2023-08-24T11:52:31;6.68;;;2.50;;
11305;SDS011;5708;50.660;6.778;2023-08-24T11:55:00;7.70;;;2.58;;
11305;SDS011;5708;50.660;6.778;2023-08-24T11:57:26;9.70;;;2.83;;
11305;SDS011;5708;50.660;6.778;2023-08-24T11:59:52;6.85;;;2.40;;
11305;SDS011;5708;50.660;6.778;2023-08-24T12:02:18;7.22;;;2.47;;
11305;SDS011;5708;50.660;6.778;2023-08-24T12:04:45;7.18;;;2.80;;
11305;SDS011;5708;50.660;6.778;2023-08-24T12:07:14;7.40;;;2.65;;
11305;SDS011;5708;50.660;6.778;2023-08-24T12:09:40;7.68;;;2.65;;
11305;SDS011;5708;50.660;6.778;2023-08-24T12:12:05;9.68;;;2.90;;
11305;SDS011;5708;50.660;6.778;2023-08-24T12:14:40;7.18;;;2.70;;
11305;SDS011;5708;50.660;6.778;2023-08-24T12:17:09;6.93;;;2.80;;
11305;SDS011;5708;50.660;6.778;2023-08-24T12:19:35;8.45;;;2.88;;
11305;SDS011;5708;50.660;6.778;2023-08-24T12:22:00;6.88;;;2.97;;
11305;SDS011;5708;50.660;6.778;2023-08-24T12:24:26;9.15;;;3.03;;
11305;SDS011;5708;50.660;6.778;2023-08-24T12:26:57;11.88;;;2.70;;
11305;SDS011;5708;50.660;6.778;2023-08-24T12:29:23;10.70;;;2.95;;
11305;SDS011;5708;50.660;6.778;2023-08-24T12:31:48;9.48;;;2.80;;
11305;SDS011;5708;50.660;6.778;2023-08-24T12:34:14;7.20;;;2.75;;
11305;SDS011;5708;50.660;6.778;2023-08-24T12:36:40;8.38;;;2.92;;
11305;SDS011;5708;50.660;6.778;2023-08-24T12:39:06;8.43;;;3.35;;
11305;SDS011;5708;50.660;6.778;2023-08-24T12:41:33;6.68;;;3.05;;
11305;SDS011;5708;50.660;6.778;2023-08-24T12:43:58;6.72;;;3.10;;
11305;SDS011;5708;50.660;6.778;2023-08-24T12:46:24;8.77;;;2.80;;
11305;SDS011;5708;50.660;6.778;2023-08-24T12:48:50;5.85;;;2.85;;
11305;SDS011;5708;50.660;6.778;2023-08-24T12:51:16;5.90;;;2.90;;
11305;SDS011;5708;50.660;6.778;2023-08-24T12:53:41;6.82;;;2.67;;
11305;SDS011;5708;50.660;6.778;2023-08-24T12:56:07;7.13;;;2.75;;
11305;SDS011;5708;50.660;6.778;2023-08-24T12:58:32;8.70;;;3.03;;
11305;SDS011;5708;50.660;6.778;2023-08-24T13:00:58;6.57;;;2.53;;
11305;SDS011;5708;50.660;6.778;2023-08-24T13:03:24;5.20;;;2.65;;
11305;SDS011;5708;50.660;6.778;2023-08-24T13:05:49;6.90;;;2.50;;
11305;SDS011;5708;50.660;6.778;2023-08-24T13:08:15;7.65;;;2.53;;
11305;SDS011;5708;50.660;6.778;2023-08-24T13:10:40;7.55;;;2.85;;
11305;SDS011;5708;50.660;6.778;2023-08-24T13:13:05;7.43;;;2.53;;
11305;SDS011;5708;50.660;6.778;2023-08-24T13:15:30;9.52;;;2.95;;
11305;SDS011;5708;50.660;6.778;2023-08-24T13:17:56;5.53;;;2.63;;
11305;SDS011;5708;50.660;6.778;2023-08-24T13:20:22;7.80;;;2.75;;
11305;SDS011;5708;50.660;6.778;2023-08-24T13:22:47;6.50;;;2.75;;
11305;SDS011;5708;50.660;6.778;2023-08-24T13:25:13;5.55;;;2.00;;
11305;SDS011;5708;50.660;6.778;2023-08-24T13:27:38;4.45;;;2.25;;
11305;SDS011;5708;50.660;6.778;2023-08-24T13:30:04;7.60;;;3.05;;
11305;SDS011;5708;50.660;6.778;2023-08-24T13:32:30;6.18;;;2.33;;
11305;SDS011;5708;50.660;6.778;2023-08-24T13:34:55;5.88;;;2.75;;
11305;SDS011;5708;50.660;6.778;2023-08-24T13:37:21;9.45;;;2.80;;
11305;SDS011;5708;50.660;6.778;2023-08-24T13:39:46;6.60;;;2.40;;
11305;SDS011;5708;50.660;6.778;2023-08-24T13:42:12;9.35;;;2.70;;
11305;SDS011;5708;50.660;6.778;2023-08-24T13:44:38;4.63;;;2.13;;
11305;SDS011;5708;50.660;6.778;2023-08-24T13:47:04;7.10;;;2.70;;
11305;SDS011;5708;50.660;6.778;2023-08-24T13:49:29;5.30;;;2.30;;
11305;SDS011;5708;50.660;6.778;2023-08-24T13:51:54;6.35;;;2.78;;
11305;SDS011;5708;50.660;6.778;2023-08-24T13:54:20;5.50;;;2.40;;
11305;SDS011;5708;50.660;6.778;2023-08-24T13:56:48;8.05;;;2.63;;
11305;SDS011;5708;50.660;6.778;2023-08-24T13:59:15;7.60;;;2.83;;
11305;SDS011;5708;50.660;6.778;2023-08-24T14:01:41;5.93;;;2.50;;
11305;SDS011;5708;50.660;6.778;2023-08-24T14:04:07;8.15;;;2.70;;
11305;SDS011;5708;50.660;6.778;2023-08-24T14:06:33;6.85;;;2.60;;
11305;SDS011;5708;50.660;6.778;2023-08-24T14:08:59;6.80;;;2.47;;
11305;SDS011;5708;50.660;6.778;2023-08-24T14:11:25;6.95;;;2.40;;
11305;SDS011;5708;50.660;6.778;2023-08-24T14:13:51;9.02;;;2.65;;
11305;SDS011;5708;50.660;6.778;2023-08-24T14:16:17;8.00;;;2.33;;
11305;SDS011;5708;50.660;6.778;2023-08-24T14:18:43;10.93;;;2.42;;
11305;SDS011;5708;50.660;6.778;2023-08-24T14:21:08;10.30;;;2.50;;
11305;SDS011;5708;50.660;6.778;2023-08-24T14:23:35;9.40;;;2.75;;
11305;SDS011;5708;50.660;6.778;2023-08-24T14:26:00;8.25;;;2.38;;
11305;SDS011;5708;50.660;6.778;2023-08-24T14:28:26;7.90;;;2.50;;
11305;SDS011;5708;50.660;6.778;2023-08-24T14:31:12;10.77;;;2.60;;
11305;SDS011;5708;50.660;6.778;2023-08-24T14:33:37;9.20;;;2.38;;
11305;SDS011;5708;50.660;6.778;2023-08-24T14:36:03;9.20;;;2.20;;
11305;SDS011;5708;50.660;6.778;2023-08-24T14:38:28;11.70;;;2.35;;
11305;SDS011;5708;50.660;6.778;2023-08-24T14:40:53;10.43;;;2.70;;
11305;SDS011;5708;50.660;6.778;2023-08-24T14:43:19;10.05;;;2.45;;
11305;SDS011;5708;50.660;6.778;2023-08-24T14:45:44;7.85;;;2.70;;
11305;SDS011;5708;50.660;6.778;2023-08-24T14:48:09;10.95;;;2.58;;
11305;SDS011;5708;50.660;6.778;2023-08-24T14:50:37;9.98;;;2.60;;
11305;SDS011;5708;50.660;6.778;2023-08-24T14:53:03;6.63;;;2.35;;
11305;SDS011;5708;50.660;6.778;2023-08-24T14:55:28;10.05;;;2.47;;
11305;SDS011;5708;50.660;6.778;2023-08-24T14:57:54;10.45;;;2.42;;
11305;SDS011;5708;50.660;6.778;2023-08-24T15:00:20;9.73;;;2.70;;
11305;SDS011;5708;50.660;6.778;2023-08-24T15:02:45;8.85;;;2.40;;
11305;SDS011;5708;50.660;6.778;2023-08-24T15:05:10;7.82;;;2.55;;
11305;SDS011;5708;50.660;6.778;2023-08-24T15:07:36;7.97;;;2.20;;